Time;durP1;ratioP1;P1;durP2;ratioP2;P2;SDS_P1;SDS_P2;PMS_P1;PMS_P2;Temp;Humidity;BMP_temperature;BMP_pressure;BME280_temperature;BME280_humidity;BME280_pressure;Samples;Min_cycle;Max_cycle;Signal;HPM_P1;HPM_P2
2022/09/11 00:01:34;;;;;;;107.88;44.10;;;14.70;99.90;;;;;;5058777;28;20257;-70
2022/09/11 00:04:01;;;;;;;106.53;42.55;;;14.70;99.90;;;;;;5076321;28;20201;-70
2022/09/11 00:06:27;;;;;;;105.32;41.90;;;14.70;99.90;;;;;;5084866;28;20239;-70
2022/09/11 00:08:59;;;;;;;109.00;42.95;;;14.70;99.90;;;;;;5095100;28;20280;-70
2022/09/11 00:11:28;;;;;;;85.97;38.03;;;14.60;99.90;;;;;;5095374;28;20173;-70
2022/09/11 00:13:55;;;;;;;100.68;42.60;;;14.70;99.90;;;;;;5096597;28;20191;-70
2022/09/11 00:16:22;;;;;;;91.28;41.13;;;14.60;99.90;;;;;;5095156;28;20230;-70
2022/09/11 00:18:50;;;;;;;105.78;41.97;;;14.70;99.90;;;;;;5095956;28;20193;-71
2022/09/11 00:21:17;;;;;;;97.80;42.33;;;14.60;99.90;;;;;;5096576;28;20208;-70
2022/09/11 00:23:43;;;;;;;110.20;43.95;;;14.60;99.90;;;;;;5096159;28;20157;-70
2022/09/11 00:26:09;;;;;;;108.60;43.80;;;14.50;99.90;;;;;;5096089;28;20213;-70
2022/09/11 00:28:35;;;;;;;101.72;43.67;;;14.50;99.90;;;;;;5080243;28;20206;-70
2022/09/11 00:31:07;;;;;;;101.40;41.55;;;14.50;99.90;;;;;;5075885;28;20165;-70
2022/09/11 00:33:34;;;;;;;107.03;43.50;;;14.50;99.90;;;;;;5075755;28;20182;-70
2022/09/11 00:36:06;;;;;;;98.28;45.25;;;14.50;99.90;;;;;;5078918;28;20734;-70
2022/09/11 00:38:36;;;;;;;82.72;38.08;;;14.40;99.90;;;;;;5095972;28;20193;-70
2022/09/11 00:41:03;;;;;;;96.05;41.15;;;14.40;99.90;;;;;;5094460;28;20196;-70
2022/09/11 00:43:49;;;;;;;96.57;41.85;;;14.40;99.90;;;;;;5095848;28;20203;-70
2022/09/11 00:46:15;;;;;;;73.63;32.65;;;14.40;99.90;;;;;;5094800;28;20578;-70
2022/09/11 00:48:42;;;;;;;79.85;35.03;;;14.40;99.90;;;;;;5094162;28;20189;-73
2022/09/11 00:51:09;;;;;;;69.47;32.58;;;14.30;99.90;;;;;;5095767;28;20240;-70
2022/09/11 00:53:36;;;;;;;69.88;32.38;;;14.20;99.90;;;;;;5095764;28;20363;-70
2022/09/11 00:56:08;;;;;;;79.53;35.58;;;14.20;99.90;;;;;;5096020;28;20173;-70
2022/09/11 00:58:38;;;;;;;59.42;30.05;;;14.10;99.90;;;;;;5079934;28;20639;-70
2022/09/11 01:01:04;;;;;;;69.38;31.95;;;14.10;99.90;;;;;;5075534;28;20219;-70
2022/09/11 01:03:33;;;;;;;55.13;29.15;;;14.10;99.90;;;;;;5074831;28;20173;-70
2022/09/11 01:05:59;;;;;;;58.10;30.25;;;14.00;99.90;;;;;;5078351;28;20280;-70
2022/09/11 01:08:26;;;;;;;55.03;29.70;;;14.00;99.90;;;;;;5095371;28;20201;-70
2022/09/11 01:11:07;;;;;;;62.47;30.02;;;14.00;99.90;;;;;;5095436;28;20681;-70
2022/09/11 01:13:53;;;;;;;64.07;30.95;;;14.00;99.90;;;;;;5095347;28;20622;-70
2022/09/11 01:16:31;;;;;;;56.75;28.67;;;13.90;99.90;;;;;;5094001;28;20641;-70
2022/09/11 01:18:57;;;;;;;57.95;29.00;;;13.80;99.90;;;;;;5094973;28;20193;-70
2022/09/11 01:21:51;;;;;;;56.53;27.20;;;13.80;99.90;;;;;;5095097;28;20176;-70
2022/09/11 01:24:36;;;;;;;48.67;25.13;;;13.70;99.90;;;;;;5095107;28;20214;-70
2022/09/11 01:27:27;;;;;;;40.95;22.65;;;13.70;99.90;;;;;;5090741;28;20216;-70
2022/09/11 01:30:00;;;;;;;40.58;21.77;;;13.70;99.90;;;;;;5073487;28;20566;-70
2022/09/11 01:32:40;;;;;;;41.38;23.27;;;13.70;99.90;;;;;;5074942;28;20174;-70
2022/09/11 01:35:30;;;;;;;48.15;24.85;;;13.70;99.90;;;;;;5074686;28;20189;-70
2022/09/11 01:38:07;;;;;;;49.88;24.02;;;13.70;99.90;;;;;;5053429;28;20210;-70
2022/09/11 01:40:54;;;;;;;49.28;24.60;;;13.60;99.90;;;;;;5054758;28;20195;-70
2022/09/11 01:43:29;;;;;;;57.30;25.15;;;13.60;99.90;;;;;;5054965;28;20174;-70
2022/09/11 01:45:58;;;;;;;52.55;25.33;;;13.60;99.90;;;;;;5053235;28;20194;-70
2022/09/11 01:48:37;;;;;;;56.42;26.40;;;13.70;99.90;;;;;;5054751;28;20683;-70
2022/09/11 01:51:05;;;;;;;70.80;25.98;;;13.70;99.90;;;;;;5054275;28;20159;-70
2022/09/11 01:53:37;;;;;;;68.45;26.52;;;13.60;99.90;;;;;;5054799;28;20170;-70
2022/09/11 01:56:15;;;;;;;64.07;25.08;;;13.50;99.90;;;;;;5054578;28;20162;-70
2022/09/11 01:58:44;;;;;;;77.65;32.42;;;13.60;99.90;;;;;;5070874;28;20190;-70
2022/09/11 02:01:19;;;;;;;81.78;34.35;;;13.60;99.90;;;;;;5074348;28;20170;-70
2022/09/11 02:03:51;;;;;;;60.50;28.35;;;13.70;99.90;;;;;;5073289;28;20172;-70
2022/09/11 02:06:29;;;;;;;61.28;30.00;;;13.70;99.90;;;;;;5081456;28;20582;-70
2022/09/11 02:09:07;;;;;;;58.75;27.23;;;13.80;99.90;;;;;;5093215;28;20665;-70
2022/09/11 02:11:36;;;;;;;62.88;27.45;;;13.80;99.90;;;;;;5094620;28;20153;-70
2022/09/11 02:14:20;;;;;;;64.47;29.23;;;13.80;99.90;;;;;;5093874;28;20169;-70
2022/09/11 02:16:56;;;;;;;73.97;31.13;;;13.90;99.90;;;;;;5094316;28;20241;-70
2022/09/11 02:19:26;;;;;;;85.57;32.65;;;13.90;99.90;;;;;;5099209;28;20189;-70
2022/09/11 02:21:52;;;;;;;116.60;38.50;;;13.90;99.90;;;;;;5097006;28;20189;-71
2022/09/11 02:24:21;;;;;;;96.80;40.20;;;14.00;99.90;;;;;;5100088;28;20184;-70
2022/09/11 02:26:51;;;;;;;94.07;37.38;;;14.00;99.90;;;;;;5096113;28;20189;-69
2022/09/11 02:29:17;;;;;;;109.88;44.47;;;14.00;99.90;;;;;;5072986;28;20692;-70
2022/09/11 02:31:44;;;;;;;91.57;38.17;;;14.00;99.90;;;;;;5072851;28;20181;-70
2022/09/11 02:34:12;;;;;;;99.03;38.92;;;14.00;99.90;;;;;;5073817;28;20642;-70
2022/09/11 02:37:07;;;;;;;96.78;40.72;;;14.10;99.90;;;;;;5083843;28;20216;-70
2022/09/11 02:39:35;;;;;;;100.30;41.60;;;14.10;99.90;;;;;;5092477;28;20271;-70
2022/09/11 02:42:14;;;;;;;122.03;44.13;;;14.20;99.90;;;;;;5094050;28;20173;-70
2022/09/11 02:45:13;;;;;;;108.60;42.25;;;14.20;99.90;;;;;;5092659;28;20176;-70
2022/09/11 02:48:19;;;;;;;109.10;44.05;;;14.20;99.90;;;;;;5093691;28;20217;-70
2022/09/11 02:50:52;;;;;;;95.90;38.10;;;14.20;99.90;;;;;;5093741;28;20567;-70
2022/09/11 02:53:46;;;;;;;100.90;41.83;;;14.20;99.90;;;;;;5092385;28;20370;-70
2022/09/11 02:56:22;;;;;;;118.78;43.42;;;14.20;99.90;;;;;;5092494;28;20181;-70
2022/09/11 02:58:58;;;;;;;113.53;43.55;;;14.20;99.90;;;;;;5075890;28;20204;-70
2022/09/11 03:01:24;;;;;;;129.25;46.03;;;14.30;99.90;;;;;;5073376;28;20626;-70
2022/09/11 03:03:50;;;;;;;132.73;46.67;;;14.30;99.90;;;;;;5073246;28;20180;-70
2022/09/11 03:06:19;;;;;;;115.38;45.72;;;14.30;99.90;;;;;;5080012;28;20538;-70
2022/09/11 03:08:45;;;;;;;106.97;42.53;;;14.30;99.90;;;;;;5093265;28;20215;-70
2022/09/11 03:11:14;;;;;;;95.50;40.25;;;14.30;99.90;;;;;;5093449;28;20637;-70
2022/09/11 03:13:40;;;;;;;92.00;39.58;;;14.30;99.90;;;;;;5093772;28;20652;-70
2022/09/11 03:16:06;;;;;;;94.70;40.70;;;14.30;99.90;;;;;;5093382;28;20177;-70
2022/09/11 03:18:33;;;;;;;90.63;38.30;;;14.40;99.90;;;;;;5093383;28;20265;-70
2022/09/11 03:21:00;;;;;;;84.22;37.17;;;14.40;99.90;;;;;;5093224;28;20592;-70
2022/09/11 03:23:26;;;;;;;100.72;41.10;;;14.40;99.90;;;;;;5091940;28;20639;-70
2022/09/11 03:25:53;;;;;;;73.95;32.42;;;14.50;99.90;;;;;;5094717;28;20248;-70
2022/09/11 03:28:21;;;;;;;117.13;44.13;;;14.50;99.90;;;;;;5082330;28;20270;-70
2022/09/11 03:30:48;;;;;;;72.03;32.35;;;14.50;99.90;;;;;;5077058;28;20173;-70
2022/09/11 03:33:16;;;;;;;116.75;45.20;;;14.50;99.90;;;;;;5076993;28;20531;-70
2022/09/11 03:35:42;;;;;;;84.75;36.97;;;14.50;99.90;;;;;;5077546;28;20654;-70
2022/09/11 03:38:08;;;;;;;96.03;41.83;;;14.50;99.90;;;;;;5095750;28;20201;-70
2022/09/11 03:40:33;;;;;;;101.72;41.65;;;14.50;99.90;;;;;;5097133;28;20250;-70
2022/09/11 03:42:59;;;;;;;120.22;46.75;;;14.50;99.90;;;;;;5095861;28;20258;-70
2022/09/11 03:45:25;;;;;;;135.35;46.70;;;14.50;99.90;;;;;;5097257;28;20620;-70
2022/09/11 03:47:52;;;;;;;98.35;40.67;;;14.50;99.90;;;;;;5096846;28;20306;-70
2022/09/11 03:50:18;;;;;;;85.50;36.50;;;14.50;99.90;;;;;;5096686;28;20169;-70
2022/09/11 03:52:44;;;;;;;104.22;44.33;;;14.60;99.90;;;;;;5095715;28;20169;-70
2022/09/11 03:55:09;;;;;;;117.43;46.83;;;14.60;99.90;;;;;;5096706;28;20177;-70
2022/09/11 03:57:36;;;;;;;104.63;44.15;;;14.60;99.90;;;;;;5089249;28;20213;-70
2022/09/11 04:00:04;;;;;;;102.85;43.05;;;14.60;99.90;;;;;;5076778;28;20170;-70
2022/09/11 04:02:30;;;;;;;108.72;42.70;;;14.60;99.90;;;;;;5076404;28;20206;-70
2022/09/11 04:04:56;;;;;;;110.75;45.42;;;14.60;99.90;;;;;;5076419;28;20173;-70
2022/09/11 04:07:23;;;;;;;136.65;48.03;;;14.60;99.90;;;;;;5091148;28;20584;-70
2022/09/11 04:09:48;;;;;;;105.28;43.78;;;14.60;99.90;;;;;;5096475;28;20269;-70
2022/09/11 04:12:15;;;;;;;102.80;42.22;;;14.70;99.90;;;;;;5096826;28;20169;-70
2022/09/11 04:14:41;;;;;;;102.43;42.75;;;14.70;99.90;;;;;;5096666;28;20165;-70
2022/09/11 04:17:07;;;;;;;96.53;39.95;;;14.70;99.90;;;;;;5096443;28;20260;-70
2022/09/11 04:19:33;;;;;;;102.63;40.72;;;14.70;99.90;;;;;;5096556;28;20610;-70
2022/09/11 04:21:59;;;;;;;92.88;39.17;;;14.70;99.90;;;;;;5096691;28;20262;-70
2022/09/11 04:24:25;;;;;;;88.22;35.72;;;14.70;99.90;;;;;;5096268;28;20211;-70
2022/09/11 04:26:51;;;;;;;93.75;40.10;;;14.70;99.90;;;;;;5095179;28;20197;-70
2022/09/11 04:29:16;;;;;;;79.53;37.45;;;14.80;99.90;;;;;;5076259;28;20214;-70
2022/09/11 04:31:43;;;;;;;81.63;34.53;;;14.80;99.90;;;;;;5076098;28;20185;-70
2022/09/11 04:34:09;;;;;;;72.60;32.50;;;14.80;99.90;;;;;;5076522;28;20169;-70
2022/09/11 04:36:34;;;;;;;72.05;36.03;;;14.90;99.90;;;;;;5085096;28;20272;-70
2022/09/11 04:39:00;;;;;;;102.55;41.63;;;14.90;99.90;;;;;;5095240;28;20201;-70
2022/09/11 04:41:27;;;;;;;85.47;34.60;;;14.90;99.90;;;;;;5094739;28;20192;-70
2022/09/11 04:43:55;;;;;;;106.50;44.05;;;14.90;99.90;;;;;;5094738;28;20638;-70
2022/09/11 04:46:22;;;;;;;168.07;57.85;;;14.90;99.90;;;;;;5094702;28;20585;-70
2022/09/11 04:48:54;;;;;;;145.93;51.25;;;14.90;99.90;;;;;;5095950;28;20721;-70
2022/09/11 04:51:21;;;;;;;176.57;57.88;;;14.80;99.90;;;;;;5094456;28;20177;-70
2022/09/11 04:53:48;;;;;;;197.98;58.42;;;14.80;99.90;;;;;;5096290;28;20169;-70
2022/09/11 04:56:14;;;;;;;116.50;45.33;;;14.80;99.90;;;;;;5096449;28;20173;-70
2022/09/11 04:58:41;;;;;;;126.35;47.65;;;14.80;99.90;;;;;;5079354;28;20713;-70
2022/09/11 05:01:13;;;;;;;120.80;46.13;;;14.70;99.90;;;;;;5075814;28;20177;-70
2022/09/11 05:03:40;;;;;;;179.00;59.13;;;14.70;99.90;;;;;;5075222;28;20315;-70
2022/09/11 05:06:07;;;;;;;200.45;62.63;;;14.70;99.90;;;;;;5080566;28;20194;-70
2022/09/11 05:08:33;;;;;;;237.80;67.60;;;14.70;99.90;;;;;;5095427;28;20615;-70
2022/09/11 05:11:00;;;;;;;240.95;68.53;;;14.70;99.90;;;;;;5094252;28;20249;-70
2022/09/11 05:13:26;;;;;;;258.67;71.70;;;14.60;99.90;;;;;;5095392;28;20234;-70
2022/09/11 05:15:53;;;;;;;260.58;72.03;;;14.60;99.90;;;;;;5095315;28;20177;-70
2022/09/11 05:18:18;;;;;;;188.23;62.72;;;14.50;99.90;;;;;;5095206;28;20564;-70
2022/09/11 05:20:44;;;;;;;212.30;69.60;;;14.60;99.90;;;;;;5095093;28;20169;-70
2022/09/11 05:23:11;;;;;;;229.93;66.25;;;14.60;99.90;;;;;;5095082;28;20260;-71
2022/09/11 05:25:37;;;;;;;223.68;66.60;;;14.60;99.90;;;;;;5095801;28;20260;-70
2022/09/11 05:28:04;;;;;;;232.18;66.97;;;14.60;99.90;;;;;;5082321;28;20218;-70
2022/09/11 05:30:30;;;;;;;271.83;70.80;;;14.60;99.90;;;;;;5073869;28;20180;-70
2022/09/11 05:32:56;;;;;;;226.48;66.82;;;14.50;99.90;;;;;;5075107;28;20268;-70
2022/09/11 05:35:25;;;;;;;206.60;62.42;;;14.50;99.90;;;;;;5075056;28;20605;-70
2022/09/11 05:37:51;;;;;;;175.30;58.67;;;14.60;99.90;;;;;;5094859;28;20619;-71
2022/09/11 05:40:17;;;;;;;255.75;66.88;;;14.60;99.90;;;;;;5093446;28;20195;-71
2022/09/11 05:42:43;;;;;;;210.93;61.58;;;14.70;99.90;;;;;;5095134;28;20560;-70
2022/09/11 05:45:09;;;;;;;309.05;74.10;;;14.60;99.90;;;;;;5094797;28;20591;-70
2022/09/11 05:47:35;;;;;;;265.77;71.57;;;14.60;99.90;;;;;;5094542;28;20213;-71
2022/09/11 05:50:01;;;;;;;234.75;65.38;;;14.60;99.90;;;;;;5093258;28;20173;-70
2022/09/11 05:52:29;;;;;;;272.45;72.25;;;14.60;99.90;;;;;;5094549;28;20170;-70
2022/09/11 05:54:55;;;;;;;203.13;61.40;;;14.60;99.90;;;;;;5094341;28;20286;-70
2022/09/11 05:57:21;;;;;;;216.23;63.45;;;14.60;99.90;;;;;;5088702;28;20677;-71
2022/09/11 05:59:46;;;;;;;230.95;65.70;;;14.70;99.90;;;;;;5074080;28;20184;-70
2022/09/11 06:02:13;;;;;;;245.35;68.53;;;14.70;99.90;;;;;;5074241;28;20509;-71
2022/09/11 06:04:38;;;;;;;217.07;64.05;;;14.70;99.90;;;;;;5073995;28;20169;-69
2022/09/11 06:07:04;;;;;;;222.55;63.10;;;14.70;99.90;;;;;;5087237;28;20201;-74
2022/09/11 06:09:30;;;;;;;192.85;61.90;;;14.80;99.90;;;;;;5093998;28;20598;-74
2022/09/11 06:11:55;;;;;;;166.60;56.72;;;14.80;99.90;;;;;;5093122;28;20252;-73
2022/09/11 06:14:21;;;;;;;221.18;62.88;;;14.80;99.90;;;;;;5094618;28;20187;-73
2022/09/11 06:16:47;;;;;;;180.60;60.00;;;14.80;99.90;;;;;;5092725;28;20208;-74
2022/09/11 06:19:13;;;;;;;161.93;54.05;;;14.80;99.90;;;;;;5093942;28;20197;-73
2022/09/11 06:21:39;;;;;;;173.30;57.72;;;14.80;99.90;;;;;;5093793;28;20176;-73
2022/09/11 06:24:05;;;;;;;167.55;57.38;;;14.80;99.90;;;;;;5093926;28;20531;-73
2022/09/11 06:26:33;;;;;;;153.05;53.85;;;14.80;99.90;;;;;;5094180;28;20645;-74
2022/09/11 06:28:59;;;;;;;163.65;55.40;;;14.80;99.90;;;;;;5074715;28;20198;-74
2022/09/11 06:31:26;;;;;;;166.85;55.83;;;14.90;99.90;;;;;;5073902;28;20248;-73
2022/09/11 06:33:52;;;;;;;153.65;53.22;;;14.90;99.90;;;;;;5073654;28;20185;-68
2022/09/11 06:36:21;;;;;;;148.07;53.38;;;14.90;99.90;;;;;;5080460;28;20200;-68
2022/09/11 06:38:55;;;;;;;137.75;53.25;;;15.00;99.90;;;;;;5093646;28;20185;-68
2022/09/11 06:41:23;;;;;;;159.40;55.47;;;15.00;99.90;;;;;;5093616;28;20181;-68
2022/09/11 06:43:49;;;;;;;141.82;52.00;;;15.00;99.90;;;;;;5093677;28;20322;-68
2022/09/11 06:46:21;;;;;;;156.15;56.38;;;15.10;99.90;;;;;;5093551;28;20248;-68
2022/09/11 06:48:49;;;;;;;137.60;52.90;;;15.00;99.90;;;;;;5092342;28;20192;-68
2022/09/11 06:51:17;;;;;;;149.80;55.22;;;15.00;99.90;;;;;;5092158;28;20169;-68
2022/09/11 06:53:43;;;;;;;132.63;50.33;;;15.00;99.90;;;;;;5093626;28;20160;-68
2022/09/11 06:56:15;;;;;;;135.77;51.53;;;15.00;99.90;;;;;;5093436;28;20180;-68
2022/09/11 06:58:41;;;;;;;138.75;52.15;;;15.00;99.90;;;;;;5075512;28;20236;-70
2022/09/11 07:01:12;;;;;;;130.50;50.47;;;15.00;99.90;;;;;;5073114;28;20217;-70
2022/09/11 07:03:40;;;;;;;129.40;50.03;;;15.10;99.90;;;;;;5073156;28;20231;-70
2022/09/11 07:06:09;;;;;;;143.00;54.42;;;15.10;99.90;;;;;;5077454;28;20193;-69
2022/09/11 07:08:35;;;;;;;144.20;55.33;;;15.10;99.90;;;;;;5092176;28;20204;-68
2022/09/11 07:11:05;;;;;;;137.38;54.15;;;15.00;99.90;;;;;;5094212;28;20165;-68
2022/09/11 07:13:31;;;;;;;131.00;52.25;;;15.10;99.90;;;;;;5093417;28;20176;-69
2022/09/11 07:16:06;;;;;;;136.30;51.55;;;15.10;99.90;;;;;;5093380;28;20166;-69
2022/09/11 07:18:50;;;;;;;139.07;53.08;;;15.20;99.90;;;;;;5092576;28;20207;-69
2022/09/11 07:21:20;;;;;;;143.50;50.65;;;15.20;99.90;;;;;;5093277;28;20497;-72
2022/09/11 07:23:53;;;;;;;126.40;49.17;;;15.30;99.90;;;;;;5091847;28;20230;-72
2022/09/11 07:26:19;;;;;;;122.15;48.03;;;15.30;99.90;;;;;;5092059;28;20173;-72
2022/09/11 07:28:49;;;;;;;113.85;45.47;;;15.30;99.90;;;;;;5076040;28;20204;-72
2022/09/11 07:31:19;;;;;;;110.95;45.38;;;15.40;99.90;;;;;;5071866;28;20664;-72
2022/09/11 07:33:47;;;;;;;96.93;43.40;;;15.40;99.90;;;;;;5073071;28;20254;-72
2022/09/11 07:36:15;;;;;;;106.40;42.45;;;15.50;99.90;;;;;;5078003;28;20185;-72
2022/09/11 07:38:43;;;;;;;99.53;43.67;;;15.50;99.90;;;;;;5093195;28;20189;-72
2022/09/11 07:41:09;;;;;;;94.50;43.08;;;15.50;99.90;;;;;;5091940;28;20287;-72
2022/09/11 07:43:36;;;;;;;95.80;44.13;;;15.60;99.90;;;;;;5093739;28;20194;-72
2022/09/11 07:46:04;;;;;;;95.75;43.88;;;15.50;99.90;;;;;;5093333;28;20169;-71
2022/09/11 07:48:30;;;;;;;83.45;41.15;;;15.60;99.90;;;;;;5093286;28;20647;-68
2022/09/11 07:51:05;;;;;;;95.75;42.92;;;15.60;99.90;;;;;;5093297;28;20161;-69
2022/09/11 07:53:34;;;;;;;84.82;39.70;;;15.60;99.90;;;;;;5095835;28;20215;-68
2022/09/11 07:56:05;;;;;;;76.70;38.70;;;15.70;99.90;;;;;;5093111;28;20257;-70
2022/09/11 07:58:33;;;;;;;84.50;40.70;;;15.80;99.90;;;;;;5078091;28;20244;-69
2022/09/11 08:00:59;;;;;;;94.20;44.58;;;15.90;99.90;;;;;;5073702;28;20653;-73
2022/09/11 08:03:25;;;;;;;83.85;40.78;;;15.90;99.90;;;;;;5055631;28;20183;-73
2022/09/11 08:06:02;;;;;;;88.88;42.42;;;16.00;99.90;;;;;;5059735;28;20188;-73
2022/09/11 08:08:28;;;;;;;88.90;41.63;;;16.10;99.90;;;;;;5093584;28;20265;-72
2022/09/11 08:11:00;;;;;;;95.07;44.75;;;16.10;99.90;;;;;;5092257;28;20173;-73
2022/09/11 08:13:26;;;;;;;90.88;43.70;;;16.10;99.90;;;;;;5093889;28;20170;-72
2022/09/11 08:15:51;;;;;;;92.57;43.97;;;16.20;99.90;;;;;;5096926;28;20169;-72
2022/09/11 08:18:17;;;;;;;81.32;41.42;;;16.10;99.90;;;;;;5095523;28;20688;-73
2022/09/11 08:20:43;;;;;;;91.63;44.28;;;16.10;99.90;;;;;;5097064;28;20173;-72
2022/09/11 08:23:10;;;;;;;86.45;41.28;;;16.10;99.90;;;;;;5098403;28;20256;-73
2022/09/11 08:25:37;;;;;;;86.40;42.80;;;16.20;99.90;;;;;;5097786;28;20210;-72
2022/09/11 08:28:03;;;;;;;88.82;42.80;;;16.20;99.90;;;;;;5085633;28;20237;-72
2022/09/11 08:30:30;;;;;;;75.28;38.80;;;16.30;99.90;;;;;;5076981;28;20177;-72
2022/09/11 08:32:56;;;;;;;81.15;39.13;;;16.30;99.90;;;;;;5076419;28;20201;-72
2022/09/11 08:35:22;;;;;;;74.90;37.08;;;16.40;99.90;;;;;;5076384;28;20530;-72
2022/09/11 08:37:47;;;;;;;61.70;32.95;;;16.30;99.90;;;;;;5094842;28;20208;-72
2022/09/11 08:40:13;;;;;;;72.45;37.10;;;16.30;99.90;;;;;;5096949;28;20275;-72
2022/09/11 08:42:42;;;;;;;82.97;40.75;;;16.30;99.90;;;;;;5096963;28;20193;-72
2022/09/11 08:45:15;;;;;;;71.40;37.55;;;16.20;99.90;;;;;;5096619;28;20164;-73
2022/09/11 08:47:52;;;;;;;72.65;38.45;;;16.20;99.90;;;;;;5096632;28;20209;-72
2022/09/11 08:50:23;;;;;;;78.30;39.00;;;16.20;99.90;;;;;;5094603;28;20173;-72
2022/09/11 08:52:49;;;;;;;92.43;44.10;;;16.20;99.90;;;;;;5096202;28;20157;-73
2022/09/11 08:55:23;;;;;;;106.47;47.92;;;16.20;99.90;;;;;;5095953;28;20176;-72
2022/09/11 08:57:58;;;;;;;117.22;51.22;;;16.30;99.90;;;;;;5085283;28;20206;-73
2022/09/11 09:00:42;;;;;;;101.60;45.08;;;16.30;99.90;;;;;;5075702;28;20165;-73
2022/09/11 09:03:38;;;;;;;103.60;46.38;;;16.30;99.90;;;;;;5074735;28;20186;-73
2022/09/11 09:06:25;;;;;;;96.63;44.53;;;16.30;99.90;;;;;;5080592;28;20181;-73
2022/09/11 09:09:03;;;;;;;100.20;46.63;;;16.40;99.90;;;;;;5094222;28;20299;-71
2022/09/11 09:12:15;;;;;;;103.00;47.67;;;16.50;99.90;;;;;;5095723;28;20169;-72
2022/09/11 09:15:06;;;;;;;94.30;45.28;;;16.50;99.90;;;;;;5095843;28;20595;-73
2022/09/11 09:17:52;;;;;;;96.75;45.05;;;16.50;99.90;;;;;;5095426;28;20188;-73
2022/09/11 09:20:21;;;;;;;87.28;42.40;;;16.60;99.90;;;;;;5095358;28;20157;-72
2022/09/11 09:22:59;;;;;;;87.20;43.38;;;16.80;99.90;;;;;;5094089;28;20181;-72
2022/09/11 09:25:26;;;;;;;69.13;37.55;;;16.90;99.90;;;;;;5095346;28;20157;-72
2022/09/11 09:28:02;;;;;;;71.80;37.80;;;17.00;99.90;;;;;;5085244;28;20216;-72
2022/09/11 09:30:45;;;;;;;63.65;35.65;;;17.30;99.90;;;;;;5075195;28;20169;-73
2022/09/11 09:33:16;;;;;;;73.07;38.85;;;17.60;99.90;;;;;;5073820;28;20571;-73
2022/09/11 09:35:44;;;;;;;67.57;36.40;;;17.60;99.90;;;;;;5076577;28;20198;-72
2022/09/11 09:38:14;;;;;;;66.38;35.05;;;17.70;99.90;;;;;;5093595;28;20262;-72
2022/09/11 09:41:09;;;;;;;54.13;30.90;;;17.70;99.90;;;;;;5093479;28;20611;-72
2022/09/11 09:43:58;;;;;;;63.08;33.63;;;17.70;99.90;;;;;;5093626;28;20169;-72
2022/09/11 09:46:33;;;;;;;62.95;33.03;;;17.90;99.90;;;;;;5094794;28;20192;-72
2022/09/11 09:49:00;;;;;;;61.47;31.98;;;17.90;99.90;;;;;;5094512;28;20193;-72
2022/09/11 09:51:25;;;;;;;54.80;30.10;;;17.90;99.90;;;;;;5093129;28;20177;-72
2022/09/11 09:53:59;;;;;;;49.72;30.50;;;18.00;99.90;;;;;;5093352;28;20607;-72
2022/09/11 09:56:26;;;;;;;47.78;27.10;;;18.10;99.90;;;;;;5095364;28;20161;-73
2022/09/11 09:59:10;;;;;;;45.85;26.10;;;18.20;99.90;;;;;;5076180;28;20190;-73
2022/09/11 10:01:49;;;;;;;47.28;27.67;;;18.20;99.90;;;;;;5070363;28;20162;-72
2022/09/11 10:04:21;;;;;;;51.40;28.25;;;18.20;99.90;;;;;;5054177;28;20154;-72
2022/09/11 10:06:52;;;;;;;52.40;29.10;;;18.20;99.90;;;;;;5076312;28;20223;-73
2022/09/11 10:09:41;;;;;;;38.35;24.15;;;18.10;99.90;;;;;;5093001;28;20193;-72
2022/09/11 10:12:15;;;;;;;43.42;26.50;;;18.00;99.90;;;;;;5092938;28;20170;-72
2022/09/11 10:15:01;;;;;;;54.55;29.23;;;17.90;99.90;;;;;;5094503;28;20193;-72
2022/09/11 10:17:30;;;;;;;47.03;27.33;;;17.80;99.90;;;;;;5094591;28;20282;-72
2022/09/11 10:20:25;;;;;;;46.50;27.15;;;17.70;99.90;;;;;;5094831;28;20539;-72
2022/09/11 10:22:53;;;;;;;40.15;26.75;;;17.60;99.90;;;;;;5094689;28;20157;-72
2022/09/11 10:25:26;;;;;;;42.95;27.42;;;17.60;99.90;;;;;;5094908;28;20169;-73
2022/09/11 10:28:13;;;;;;;46.95;28.88;;;17.70;99.90;;;;;;5084991;28;20220;-72
2022/09/11 10:30:48;;;;;;;47.10;27.40;;;17.60;99.90;;;;;;5077223;28;20161;-73
2022/09/11 10:33:28;;;;;;;43.08;26.33;;;17.60;99.90;;;;;;5076170;28;20181;-72
2022/09/11 10:35:55;;;;;;;43.33;28.52;;;17.60;99.90;;;;;;5075964;28;20193;-72
2022/09/11 10:38:44;;;;;;;43.42;27.50;;;17.70;99.90;;;;;;5093988;28;20673;-72
2022/09/11 10:41:12;;;;;;;45.78;26.90;;;17.70;99.90;;;;;;5094372;28;20200;-73
2022/09/11 10:43:47;;;;;;;43.10;26.67;;;17.70;99.90;;;;;;5094725;28;20626;-72
2022/09/11 10:46:27;;;;;;;40.05;24.92;;;17.80;99.90;;;;;;5092729;28;20180;-70
2022/09/11 10:49:06;;;;;;;46.20;28.55;;;18.00;99.90;;;;;;5093073;28;20200;-69
2022/09/11 10:51:37;;;;;;;47.80;29.92;;;18.20;99.90;;;;;;5093907;28;20203;-70
2022/09/11 10:54:16;;;;;;;39.67;24.65;;;18.50;99.90;;;;;;5094517;28;20153;-69
2022/09/11 10:56:44;;;;;;;31.50;21.20;;;18.70;99.90;;;;;;5093455;28;20157;-71
2022/09/11 10:59:18;;;;;;;33.38;23.10;;;19.00;99.90;;;;;;5054869;28;20190;-70
2022/09/11 11:01:43;;;;;;;32.47;21.30;;;19.20;99.90;;;;;;5054457;28;20228;-70
2022/09/11 11:04:11;;;;;;;31.17;22.05;;;19.40;99.90;;;;;;5054427;28;20567;-69
2022/09/11 11:07:31;;;;;;;27.65;19.98;;;19.60;99.90;;;;;;5073178;28;20173;-71
2022/09/11 11:10:19;;;;;;;24.73;16.05;;;19.70;99.90;;;;;;5099098;28;20228;-70
2022/09/11 11:13:27;;;;;;;23.05;16.20;;;19.60;99.90;;;;;;5095371;28;20165;-69
2022/09/11 11:16:00;;;;;;;24.25;17.35;;;19.90;99.90;;;;;;5096757;28;20180;-70
2022/09/11 11:18:34;;;;;;;23.05;17.17;;;20.30;99.90;;;;;;5093012;28;20203;-68
2022/09/11 11:21:27;;;;;;;26.10;18.95;;;20.40;99.90;;;;;;5096759;28;20168;-68
2022/09/11 11:24:02;;;;;;;27.30;20.00;;;20.20;99.90;;;;;;5096234;28;20184;-71
2022/09/11 11:27:03;;;;;;;26.27;20.13;;;20.00;99.90;;;;;;5096707;28;20555;-68
2022/09/11 11:30:01;;;;;;;25.23;19.40;;;20.10;99.90;;;;;;5054489;28;20186;-72
2022/09/11 11:33:01;;;;;;;25.58;19.58;;;20.10;99.90;;;;;;5061466;28;20178;-68
2022/09/11 11:35:32;;;;;;;25.90;18.58;;;20.20;99.90;;;;;;5077388;28;20203;-70
2022/09/11 11:38:27;;;;;;;26.92;20.65;;;20.20;99.90;;;;;;5054558;28;20251;-70
2022/09/11 11:41:04;;;;;;;25.17;18.15;;;20.30;99.90;;;;;;5051342;28;20203;-69
2022/09/11 11:43:36;;;;;;;29.58;20.23;;;20.30;99.90;;;;;;5053300;28;20673;-70
2022/09/11 11:46:17;;;;;;;27.10;19.88;;;20.30;99.90;;;;;;5053870;28;20163;-70
2022/09/11 11:48:45;;;;;;;28.80;19.50;;;20.30;99.90;;;;;;5057165;28;20202;-69
2022/09/11 11:51:17;;;;;;;25.70;19.02;;;20.40;99.90;;;;;;5055111;28;20665;-70
2022/09/11 11:53:58;;;;;;;29.75;22.67;;;20.50;99.90;;;;;;5055288;28;20178;-70
2022/09/11 11:56:55;;;;;;;33.30;24.00;;;20.70;99.90;;;;;;5056612;28;20181;-69
2022/09/11 11:59:30;;;;;;;32.63;22.88;;;20.60;99.90;;;;;;5056593;28;20186;-69
2022/09/11 12:02:04;;;;;;;27.08;19.23;;;20.50;99.90;;;;;;5055256;28;20685;-69
2022/09/11 12:04:44;;;;;;;27.30;20.95;;;20.40;99.90;;;;;;5055090;28;20603;-69
2022/09/11 12:07:20;;;;;;;27.63;21.13;;;20.20;99.90;;;;;;5085430;28;20570;-70
2022/09/11 12:09:49;;;;;;;23.38;17.80;;;19.90;99.90;;;;;;5095552;28;20218;-70
2022/09/11 12:12:16;;;;;;;32.58;24.17;;;19.80;99.90;;;;;;5095539;28;20173;-71
2022/09/11 12:14:54;;;;;;;31.35;23.45;;;19.70;99.90;;;;;;5097091;28;20258;-71
2022/09/11 12:17:24;;;;;;;29.50;22.83;;;19.90;99.90;;;;;;5096579;28;20294;-71
2022/09/11 12:20:09;;;;;;;32.28;22.33;;;20.10;99.90;;;;;;5096732;28;20264;-71
2022/09/11 12:22:47;;;;;;;27.23;20.58;;;20.50;99.90;;;;;;5095075;28;20180;-71
2022/09/11 12:25:21;;;;;;;27.65;20.70;;;20.80;99.90;;;;;;5096890;28;20652;-70
2022/09/11 12:27:47;;;;;;;28.45;21.63;;;20.90;99.90;;;;;;5087473;28;20221;-70
2022/09/11 12:30:16;;;;;;;26.17;19.88;;;20.50;99.90;;;;;;5075039;28;20246;-70
2022/09/11 12:32:56;;;;;;;29.63;23.27;;;20.40;99.90;;;;;;5075869;28;20173;-70
2022/09/11 12:35:52;;;;;;;24.73;19.63;;;20.30;99.90;;;;;;5076432;28;20679;-70
2022/09/11 12:38:30;;;;;;;28.00;18.90;;;20.20;99.90;;;;;;5055443;28;20211;-70
2022/09/11 12:41:06;;;;;;;24.65;19.30;;;20.00;99.90;;;;;;5055728;28;20201;-70
2022/09/11 12:43:34;;;;;;;29.75;21.45;;;20.20;99.90;;;;;;5056272;28;20241;-69
2022/09/11 12:46:29;;;;;;;27.30;20.77;;;20.20;99.90;;;;;;5054727;28;20257;-70
2022/09/11 12:48:57;;;;;;;24.40;17.92;;;20.00;99.90;;;;;;5054555;28;20246;-70